createdAt,value
2019-03-02T00:01:29.654Z,50.56
2019-03-02T00:03:59.125Z,50.62
2019-03-02T00:06:28.644Z,50.94
2019-03-02T00:09:01.177Z,51.72
2019-03-02T00:11:30.655Z,51.99
2019-03-02T00:14:00.114Z,52.20
2019-03-02T00:16:29.588Z,52.13
2019-03-02T00:18:59.062Z,52.24
2019-03-02T00:21:31.375Z,51.94
2019-03-02T00:23:59.852Z,52.11
2019-03-02T00:26:29.350Z,51.99
2019-03-02T00:28:58.821Z,52.18
2019-03-02T00:31:29.832Z,52.05
2019-03-02T00:33:59.515Z,52.17
2019-03-02T00:36:28.965Z,52.23
2019-03-02T00:38:58.482Z,52.06
2019-03-02T00:41:28.024Z,52.46
2019-03-02T00:43:59.802Z,52.40
2019-03-02T00:46:28.787Z,52.15
2019-03-02T00:48:58.333Z,51.94
2019-03-02T00:51:27.916Z,51.66
2019-03-02T00:53:57.419Z,51.68
2019-03-02T00:56:27.288Z,51.62
2019-03-02T00:58:56.793Z,51.47
2019-03-02T01:01:28.657Z,51.96
2019-03-02T01:03:57.516Z,52.48
2019-03-02T01:06:26.995Z,52.83
2019-03-02T01:08:56.554Z,52.90
2019-03-02T01:11:26.092Z,52.78
2019-03-02T01:13:56.838Z,52.68
2019-03-02T01:16:26.902Z,52.85
2019-03-02T01:18:56.371Z,52.70
2019-03-02T01:21:25.850Z,52.53
2019-03-02T01:23:55.325Z,52.92
2019-03-02T01:26:24.842Z,52.97
2019-03-02T01:28:54.292Z,53.00
2019-03-02T01:31:23.793Z,53.19
2019-03-02T01:33:53.306Z,53.52
2019-03-02T01:36:22.808Z,53.52
2019-03-02T01:38:54.030Z,53.52
2019-03-02T01:41:23.545Z,53.70
2019-03-02T01:43:53.024Z,53.59
2019-03-02T01:46:22.503Z,53.43
2019-03-02T01:48:52.053Z,53.15
2019-03-02T01:51:23.096Z,53.01
2019-03-02T01:53:52.799Z,53.12
2019-03-02T01:56:22.399Z,53.31
2019-03-02T01:58:51.884Z,53.53
2019-03-02T02:01:24.749Z,53.42
2019-03-02T02:03:52.619Z,53.49
2019-03-02T02:06:22.146Z,53.02
2019-03-02T02:08:51.671Z,52.73
2019-03-02T02:11:21.221Z,52.88
2019-03-02T02:13:50.714Z,52.77
2019-03-02T02:16:20.205Z,52.60
2019-03-02T02:18:49.683Z,52.74
2019-03-02T02:21:19.229Z,52.66
2019-03-02T02:23:49.848Z,52.70
2019-03-02T02:26:20.015Z,52.59
2019-03-02T02:28:49.474Z,52.51
2019-03-02T02:31:18.948Z,52.59
2019-03-02T02:33:50.154Z,52.62
2019-03-02T02:36:20.408Z,52.67
2019-03-02T02:38:54.448Z,52.58
2019-03-02T02:41:23.146Z,52.66
2019-03-02T02:43:54.384Z,52.62
2019-03-02T02:46:27.472Z,52.77
2019-03-02T02:48:55.084Z,52.82
2019-03-02T02:51:24.563Z,52.77
2019-03-02T02:53:54.031Z,52.72
2019-03-02T02:56:23.530Z,52.67
2019-03-02T02:58:56.141Z,52.66
2019-03-02T03:01:24.259Z,52.99
2019-03-02T03:03:54.776Z,53.23
2019-03-02T03:06:28.623Z,53.42
2019-03-02T03:08:56.174Z,53.85
2019-03-02T03:11:25.653Z,53.94
2019-03-02T03:13:55.128Z,54.05
2019-03-02T03:16:24.664Z,54.11
2019-03-02T03:18:54.207Z,54.45
2019-03-02T03:21:27.775Z,54.74
2019-03-02T03:24:03.218Z,54.54
2019-03-02T03:26:26.057Z,54.50
2019-03-02T03:28:55.568Z,54.70
2019-03-02T03:31:26.245Z,54.79
2019-03-02T03:33:56.247Z,54.87
2019-03-02T03:36:30.196Z,54.81
2019-03-02T03:38:56.993Z,54.55
2019-03-02T03:41:26.544Z,54.42
2019-03-02T03:43:56.052Z,54.14
2019-03-02T03:46:25.551Z,54.12
2019-03-02T03:48:56.477Z,54.37
2019-03-02T03:51:30.510Z,54.38
2019-03-02T03:54:01.599Z,54.22
2019-03-02T03:56:28.887Z,54.09
2019-03-02T03:58:58.380Z,54.13
2019-03-02T04:01:27.835Z,54.11
2019-03-02T04:03:57.425Z,54.12
2019-03-02T04:06:27.845Z,54.13
2019-03-02T04:08:58.224Z,54.44
2019-03-02T04:11:27.735Z,54.26
2019-03-02T04:13:57.238Z,53.98
2019-03-02T04:16:26.730Z,54.00
2019-03-02T04:19:00.351Z,53.85
2019-03-02T04:21:38.849Z,53.82
2019-03-02T04:24:08.326Z,53.73
2019-03-02T04:26:38.596Z,53.56
2019-03-02T04:29:09.918Z,53.70
2019-03-02T04:31:44.088Z,53.38
2019-03-02T04:34:10.873Z,53.34
2019-03-02T04:36:43.173Z,53.17
2019-03-02T04:39:13.655Z,53.05
2019-03-02T04:41:42.773Z,52.89
2019-03-02T04:44:12.318Z,52.58
2019-03-02T04:46:41.772Z,52.55
2019-03-02T04:49:14.686Z,52.74
2019-03-02T04:51:42.537Z,52.75
2019-03-02T04:54:12.069Z,52.77
2019-03-02T04:56:41.551Z,52.71
2019-03-02T04:59:11.020Z,52.77
2019-03-02T05:01:43.659Z,52.79
2019-03-02T05:04:11.768Z,52.89
2019-03-02T05:06:41.552Z,52.85
2019-03-02T05:09:13.655Z,52.78
2019-03-02T05:11:42.234Z,52.95
2019-03-02T05:14:11.699Z,53.31
2019-03-02T05:16:41.235Z,53.51
2019-03-02T05:19:10.778Z,53.95
2019-03-02T05:21:43.520Z,54.49
2019-03-02T05:24:11.537Z,55.01
2019-03-02T05:26:41.036Z,55.32
2019-03-02T05:29:10.551Z,55.26
2019-03-02T05:31:40.917Z,55.12
2019-03-02T05:34:11.545Z,55.12
2019-03-02T05:36:41.805Z,55.07
2019-03-02T05:39:13.870Z,55.05
2019-03-02T05:41:42.533Z,55.16
2019-03-02T05:44:12.044Z,55.17
2019-03-02T05:46:41.593Z,55.17
2019-03-02T05:49:11.112Z,55.03
2019-03-02T05:51:42.790Z,54.84
2019-03-02T05:54:12.051Z,54.87
2019-03-02T05:56:41.565Z,54.92
2019-03-02T05:59:11.082Z,54.58
2019-03-02T06:01:44.165Z,54.60
2019-03-02T06:04:23.189Z,54.56
2019-03-02T06:06:54.179Z,54.56
2019-03-02T06:09:23.837Z,54.68
2019-03-02T06:11:56.239Z,54.68
2019-03-02T06:14:26.744Z,54.44
2019-03-02T06:16:57.424Z,54.31
2019-03-02T06:19:28.031Z,54.33
2019-03-02T06:21:57.532Z,54.19
2019-03-02T06:24:27.034Z,54.34
2019-03-02T06:26:56.490Z,55.00
2019-03-02T06:29:25.996Z,54.48
2019-03-02T06:31:55.530Z,54.10
2019-03-02T06:34:25.057Z,53.88
2019-03-02T06:36:54.577Z,54.26
2019-03-02T06:39:24.078Z,54.07
2019-03-02T06:41:53.523Z,54.36
2019-03-02T06:44:23.024Z,54.55
2019-03-02T06:46:54.692Z,54.57
2019-03-02T06:49:23.786Z,54.99
2019-03-02T06:51:53.297Z,55.29
2019-03-02T06:54:22.803Z,54.94
2019-03-02T06:56:57.855Z,55.18
2019-03-02T06:59:23.595Z,55.26
2019-03-02T07:01:53.086Z,55.02
2019-03-02T07:04:23.133Z,54.80
2019-03-02T07:06:52.823Z,54.67
2019-03-02T07:09:22.319Z,54.75
2019-03-02T07:11:51.822Z,55.03
2019-03-02T07:14:21.381Z,55.31
2019-03-02T07:16:52.041Z,55.13
2019-03-02T07:19:29.105Z,55.21
2019-03-02T07:21:58.599Z,54.88
2019-03-02T07:24:29.524Z,54.99
2019-03-02T07:26:59.355Z,55.10
2019-03-02T07:29:28.908Z,55.03
2019-03-02T07:31:58.402Z,54.82
2019-03-02T07:34:27.892Z,54.44
2019-03-02T07:36:57.392Z,54.11
2019-03-02T07:39:28.760Z,54.20
2019-03-02T07:41:58.847Z,54.03
2019-03-02T07:44:28.477Z,53.99
2019-03-02T07:46:57.970Z,53.97
2019-03-02T07:49:27.475Z,53.43
2019-03-02T07:51:56.967Z,53.18
2019-03-02T07:54:26.439Z,53.12
2019-03-02T07:56:55.924Z,52.99
2019-03-02T07:59:26.562Z,53.77
2019-03-02T08:01:56.647Z,53.68
2019-03-02T08:04:26.141Z,53.22
2019-03-02T08:06:57.931Z,53.61
2019-03-02T08:09:27.114Z,54.18
2019-03-02T08:11:56.642Z,54.30
2019-03-02T08:14:26.217Z,54.51
2019-03-02T08:16:55.811Z,54.86
2019-03-02T08:19:25.361Z,55.16
2019-03-02T08:21:54.828Z,55.02
2019-03-02T08:24:24.343Z,54.98
2019-03-02T08:26:53.794Z,54.71
2019-03-02T08:29:23.296Z,54.25
2019-03-02T08:31:52.815Z,54.16
2019-03-02T08:34:22.344Z,54.30
2019-03-02T08:36:54.280Z,54.79
2019-03-02T08:39:23.103Z,54.44
2019-03-02T08:41:53.104Z,54.28
2019-03-02T08:44:22.794Z,54.04
2019-03-02T08:46:52.251Z,52.66
2019-03-02T08:49:21.837Z,52.01
2019-03-02T08:51:51.309Z,51.74
2019-03-02T08:54:21.514Z,51.46
2019-03-02T08:56:51.862Z,50.79
2019-03-02T08:59:21.496Z,50.86
2019-03-02T09:01:51.290Z,50.66
2019-03-02T09:04:22.261Z,50.27
2019-03-02T09:06:51.753Z,49.85
2019-03-02T09:09:21.263Z,49.18
2019-03-02T09:11:50.803Z,49.43
2019-03-02T09:14:20.279Z,48.95
2019-03-02T09:16:49.727Z,48.73
2019-03-02T09:19:20.892Z,48.88
2019-03-02T09:21:51.255Z,48.49
2019-03-02T09:24:21.170Z,48.36
2019-03-02T09:26:50.670Z,48.23
2019-03-02T09:29:20.145Z,47.78
2019-03-02T09:31:49.711Z,47.44
2019-03-02T09:34:19.248Z,47.26
2019-03-02T09:36:48.883Z,46.98
2019-03-02T09:39:18.367Z,46.52
2019-03-02T09:41:47.923Z,46.66
2019-03-02T09:44:17.402Z,47.08
2019-03-02T09:46:50.273Z,47.29
2019-03-02T09:49:25.036Z,47.58
2019-03-02T09:51:56.907Z,47.82
2019-03-02T09:54:26.243Z,47.84
2019-03-02T09:56:55.730Z,47.29
2019-03-02T09:59:25.207Z,46.90
2019-03-02T10:01:54.685Z,45.90
2019-03-02T10:04:24.195Z,45.44
2019-03-02T10:06:53.755Z,45.01
2019-03-02T10:09:24.972Z,44.68
2019-03-02T10:11:54.557Z,44.34
2019-03-02T10:14:27.817Z,45.18
2019-03-02T10:16:57.351Z,45.94
2019-03-02T10:19:28.893Z,46.70
2019-03-02T10:21:58.130Z,46.91
2019-03-02T10:24:27.649Z,47.26
2019-03-02T10:26:57.157Z,47.43
2019-03-02T10:29:26.640Z,47.46
2019-03-02T10:31:56.128Z,47.67
2019-03-02T10:34:25.590Z,47.53
2019-03-02T10:36:55.143Z,48.13
2019-03-02T10:39:24.728Z,48.37
2019-03-02T10:41:56.711Z,48.13
2019-03-02T10:44:25.505Z,47.83
2019-03-02T10:46:55.031Z,47.34
2019-03-02T10:49:24.555Z,47.07
2019-03-02T10:51:54.046Z,47.81
2019-03-02T10:54:23.578Z,47.11
2019-03-02T10:56:53.119Z,47.75
2019-03-02T10:59:22.615Z,47.98
2019-03-02T11:01:52.078Z,47.46
2019-03-02T11:04:44.444Z,47.53
2019-03-02T11:07:35.140Z,47.19
2019-03-02T11:10:21.739Z,47.76
2019-03-02T11:13:07.276Z,48.34
2019-03-02T11:15:54.613Z,48.58
2019-03-02T11:19:01.449Z,48.83
2019-03-02T11:21:54.603Z,49.45
2019-03-02T11:24:33.936Z,49.51
2019-03-02T11:27:27.098Z,49.29
2019-03-02T11:30:14.309Z,49.20
2019-03-02T11:32:59.059Z,48.55
2019-03-02T11:35:39.667Z,47.85
2019-03-02T11:38:27.195Z,47.58
2019-03-02T11:41:20.946Z,47.10
2019-03-02T11:44:03.781Z,46.65
2019-03-02T11:46:46.395Z,45.77
2019-03-02T11:49:30.666Z,45.86
2019-03-02T11:52:10.195Z,45.33
2019-03-02T11:55:07.735Z,44.42
2019-03-02T11:57:53.822Z,43.95
2019-03-02T12:00:42.064Z,43.65
2019-03-02T12:03:35.245Z,44.05
2019-03-02T12:06:27.004Z,44.55
2019-03-02T12:09:05.957Z,44.86
2019-03-02T12:11:53.260Z,43.68
2019-03-02T12:14:34.764Z,43.09
2019-03-02T12:17:21.618Z,43.19
2019-03-02T12:20:08.893Z,42.87
2019-03-02T12:22:54.746Z,43.23
2019-03-02T12:25:49.233Z,43.13
2019-03-02T12:28:43.705Z,43.04
2019-03-02T12:31:31.873Z,42.23
2019-03-02T12:34:15.068Z,42.65
2019-03-02T12:36:53.275Z,42.55
2019-03-02T12:39:40.941Z,42.02
2019-03-02T12:42:47.975Z,42.23
2019-03-02T12:45:42.748Z,42.48
2019-03-02T12:48:49.694Z,42.76
2019-03-02T12:51:53.200Z,42.07
2019-03-02T12:54:33.768Z,42.02
2019-03-02T12:57:09.578Z,42.31
2019-03-02T12:59:55.760Z,40.90
2019-03-02T13:02:56.556Z,41.33
2019-03-02T13:05:45.284Z,41.51
2019-03-02T13:08:34.869Z,41.35
2019-03-02T13:11:28.880Z,41.45
2019-03-02T13:14:15.895Z,41.11
2019-03-02T13:17:04.721Z,40.96
2019-03-02T13:19:49.022Z,41.13
2019-03-02T13:22:32.712Z,40.87
2019-03-02T13:25:34.188Z,41.03
2019-03-02T13:28:26.455Z,40.60
2019-03-02T13:31:23.772Z,40.69
2019-03-02T13:34:20.012Z,39.29
2019-03-02T13:36:57.279Z,37.78
2019-03-02T13:39:47.126Z,37.39
2019-03-02T13:42:46.776Z,37.57
2019-03-02T13:45:34.484Z,38.43
2019-03-02T13:48:25.722Z,38.81
2019-03-02T13:51:14.492Z,39.31
2019-03-02T13:53:59.215Z,39.58
2019-03-02T13:56:48.261Z,39.48
2019-03-02T13:59:48.870Z,38.88
2019-03-02T14:02:46.468Z,38.79
2019-03-02T14:05:41.951Z,38.93
2019-03-02T14:08:43.309Z,39.16
2019-03-02T14:11:18.834Z,39.45
2019-03-02T14:14:08.230Z,40.22
2019-03-02T14:16:55.379Z,40.43
2019-03-02T14:19:38.036Z,40.20
2019-03-02T14:22:34.710Z,39.61
2019-03-02T14:25:32.700Z,39.50
2019-03-02T14:28:21.114Z,39.51
2019-03-02T14:31:19.611Z,39.79
2019-03-02T14:34:02.915Z,39.56
2019-03-02T14:36:36.423Z,38.98
2019-03-02T14:39:21.576Z,39.27
2019-03-02T14:42:08.914Z,39.01
2019-03-02T14:44:49.164Z,38.61
2019-03-02T14:47:40.582Z,38.78
2019-03-02T14:50:20.033Z,38.66
2019-03-02T14:53:06.224Z,38.53
2019-03-02T14:55:49.870Z,38.49
2019-03-02T14:58:44.421Z,39.43
2019-03-02T15:01:47.956Z,40.16
2019-03-02T15:04:51.768Z,40.92
2019-03-02T15:07:59.236Z,40.83
2019-03-02T15:10:47.290Z,40.11
2019-03-02T15:13:47.427Z,39.61
2019-03-02T15:16:38.641Z,38.90
2019-03-02T15:19:28.751Z,38.42
2019-03-02T15:22:25.436Z,38.71
2019-03-02T15:25:00.718Z,38.93
2019-03-02T15:28:01.229Z,38.62
2019-03-02T15:31:07.801Z,39.86
2019-03-02T15:33:56.224Z,40.24
2019-03-02T15:36:43.996Z,40.51
2019-03-02T15:39:37.793Z,40.69
2019-03-02T15:42:32.288Z,41.08
2019-03-02T15:45:15.199Z,41.32
2019-03-02T15:47:54.885Z,41.21
2019-03-02T15:50:30.298Z,41.41
2019-03-02T15:53:09.105Z,41.53
2019-03-02T15:55:57.536Z,41.30
2019-03-02T15:58:45.370Z,41.58
2019-03-02T16:01:46.182Z,41.52
2019-03-02T16:04:35.451Z,41.49
2019-03-02T16:07:15.071Z,41.80
2019-03-02T16:10:07.210Z,42.09
2019-03-02T16:13:04.610Z,42.25
2019-03-02T16:15:50.489Z,42.29
2019-03-02T16:18:41.998Z,42.41
2019-03-02T16:21:31.265Z,42.32
2019-03-02T16:24:14.047Z,42.36
2019-03-02T16:27:04.348Z,42.44
2019-03-02T16:29:52.738Z,42.50
2019-03-02T16:32:36.027Z,42.70
2019-03-02T16:35:40.116Z,42.80
2019-03-02T16:38:33.447Z,42.55
2019-03-02T16:41:31.154Z,42.46
2019-03-02T16:44:27.226Z,42.31
2019-03-02T16:47:25.074Z,42.62
2019-03-02T16:50:01.202Z,42.46
2019-03-02T16:52:55.806Z,42.65
2019-03-02T16:55:45.248Z,42.76
2019-03-02T16:58:39.494Z,43.07
2019-03-02T17:01:37.266Z,43.17
2019-03-02T17:04:31.893Z,43.23
2019-03-02T17:07:11.169Z,43.25
2019-03-02T17:10:02.895Z,43.14
2019-03-02T17:12:51.325Z,43.25
2019-03-02T17:15:39.713Z,43.32
2019-03-02T17:18:37.304Z,43.52
2019-03-02T17:21:11.148Z,43.51
2019-03-02T17:24:07.712Z,43.71
2019-03-02T17:26:55.036Z,43.84
2019-03-02T17:29:55.697Z,43.92
2019-03-02T17:32:38.089Z,44.14
2019-03-02T17:35:29.242Z,44.29
2019-03-02T17:38:15.640Z,44.27
2019-03-02T17:41:07.542Z,44.40
2019-03-02T17:43:52.079Z,44.38
2019-03-02T17:46:32.968Z,44.58
2019-03-02T17:49:28.232Z,44.66
2019-03-02T17:51:58.901Z,44.86
2019-03-02T17:54:42.286Z,44.91
2019-03-02T17:57:37.907Z,44.93
2019-03-02T18:00:15.995Z,45.21
2019-03-02T18:02:59.594Z,45.27
2019-03-02T18:05:35.147Z,45.34
2019-03-02T18:08:32.907Z,45.19
2019-03-02T18:11:20.264Z,45.23
2019-03-02T18:14:16.129Z,45.24
2019-03-02T18:17:00.210Z,45.13
2019-03-02T18:19:29.747Z,45.23
2019-03-02T18:21:59.284Z,45.45
2019-03-02T18:24:31.953Z,45.66
2019-03-02T18:27:00.894Z,45.77
2019-03-02T18:29:31.136Z,45.95
2019-03-02T18:32:02.230Z,46.25
2019-03-02T18:34:31.888Z,46.54
2019-03-02T18:37:01.483Z,46.45
2019-03-02T18:39:30.963Z,46.87
2019-03-02T18:42:00.456Z,47.10
2019-03-02T18:44:29.983Z,47.28
2019-03-02T18:46:59.517Z,47.41
2019-03-02T18:49:57.100Z,47.49
2019-03-02T18:52:44.610Z,47.43
2019-03-02T18:55:14.137Z,47.93
2019-03-02T18:57:46.640Z,48.06
2019-03-02T19:00:22.913Z,48.01
2019-03-02T19:02:52.558Z,48.24
2019-03-02T19:05:28.635Z,48.49
2019-03-02T19:07:59.626Z,48.45
2019-03-02T19:10:29.388Z,48.57
2019-03-02T19:12:59.050Z,48.65
2019-03-02T19:15:28.854Z,48.70
2019-03-02T19:17:58.693Z,48.81
2019-03-02T19:20:28.196Z,48.92
2019-03-02T19:22:57.700Z,48.98
2019-03-02T19:25:27.235Z,49.08
2019-03-02T19:27:56.830Z,49.15
2019-03-02T19:30:26.311Z,49.34
2019-03-02T19:32:55.843Z,49.41
2019-03-02T19:35:25.389Z,49.49
2019-03-02T19:37:54.887Z,49.48
2019-03-02T19:40:26.539Z,49.53
2019-03-02T19:42:56.086Z,49.62
2019-03-02T19:45:25.575Z,49.95
2019-03-02T19:47:55.110Z,50.01
2019-03-02T19:50:24.611Z,50.16
2019-03-02T19:52:54.144Z,50.00
2019-03-02T19:55:23.623Z,49.99
2019-03-02T19:57:53.218Z,50.17
2019-03-02T20:00:27.336Z,50.15
2019-03-02T20:02:56.810Z,50.16
2019-03-02T20:05:26.357Z,50.16
2019-03-02T20:07:55.856Z,50.33
2019-03-02T20:10:25.904Z,50.38
2019-03-02T20:12:55.458Z,50.15
2019-03-02T20:15:24.991Z,50.20
2019-03-02T20:17:54.511Z,50.24
2019-03-02T20:20:24.000Z,50.45
2019-03-02T20:22:53.620Z,50.52
2019-03-02T20:25:23.242Z,50.42
2019-03-02T20:27:52.782Z,50.64
2019-03-02T20:30:22.295Z,51.07
2019-03-02T20:32:51.902Z,51.15
2019-03-02T20:35:22.409Z,51.12
2019-03-02T20:37:51.957Z,51.07
2019-03-02T20:40:21.986Z,51.21
2019-03-02T20:42:51.507Z,51.34
2019-03-02T20:45:21.133Z,51.32
2019-03-02T20:47:53.443Z,51.64
2019-03-02T20:50:22.962Z,51.86
2019-03-02T20:52:52.576Z,51.81
2019-03-02T20:55:24.025Z,51.90
2019-03-02T20:57:53.425Z,51.97
2019-03-02T21:00:25.297Z,52.14
2019-03-02T21:02:54.954Z,52.22
2019-03-02T21:05:24.745Z,52.11
2019-03-02T21:07:54.381Z,52.26
2019-03-02T21:10:24.446Z,52.31
2019-03-02T21:12:53.996Z,52.31
2019-03-02T21:15:29.174Z,52.26
2019-03-02T21:17:58.698Z,52.29
2019-03-02T21:20:28.297Z,52.20
2019-03-02T21:22:57.803Z,52.18
2019-03-02T21:25:27.473Z,52.21
2019-03-02T21:27:56.987Z,52.37
2019-03-02T21:30:26.497Z,52.59
2019-03-02T21:32:55.988Z,52.90
2019-03-02T21:35:25.550Z,52.73
2019-03-02T21:37:56.401Z,52.96
2019-03-02T21:40:25.987Z,52.88
2019-03-02T21:42:55.971Z,53.13
2019-03-02T21:45:25.616Z,53.08
2019-03-02T21:47:55.101Z,53.02
2019-03-02T21:50:26.651Z,53.07
2019-03-02T21:52:56.157Z,53.28
2019-03-02T21:55:25.624Z,53.23
2019-03-02T21:57:55.126Z,53.16
2019-03-02T22:00:25.991Z,53.27
2019-03-02T22:02:55.481Z,53.18
2019-03-02T22:05:24.940Z,53.09
2019-03-02T22:07:54.479Z,52.89
2019-03-02T22:10:36.099Z,52.97
2019-03-02T22:13:05.674Z,52.86
2019-03-02T22:15:35.391Z,52.87
2019-03-02T22:18:05.238Z,53.10
2019-03-02T22:20:36.162Z,52.88
2019-03-02T22:23:05.801Z,52.67
2019-03-02T22:25:35.338Z,52.44
2019-03-02T22:28:04.967Z,52.54
2019-03-02T22:30:34.603Z,52.52
2019-03-02T22:33:04.081Z,52.57
2019-03-02T22:35:33.579Z,52.72
2019-03-02T22:38:03.071Z,53.15
2019-03-02T22:40:32.617Z,53.21
2019-03-02T22:43:02.092Z,53.05
2019-03-02T22:45:31.621Z,53.17
2019-03-02T22:48:01.164Z,53.49
2019-03-02T22:50:30.652Z,53.58
2019-03-02T22:53:00.184Z,53.64
2019-03-02T22:55:29.774Z,53.74
2019-03-02T22:57:59.762Z,53.93
2019-03-02T23:00:56.642Z,54.17
2019-03-02T23:03:24.348Z,54.16
2019-03-02T23:05:53.863Z,54.54
2019-03-02T23:08:23.357Z,55.05
2019-03-02T23:10:52.908Z,55.21
2019-03-02T23:13:22.499Z,55.59
2019-03-02T23:15:51.980Z,55.94
2019-03-02T23:18:21.473Z,56.27
2019-03-02T23:20:50.974Z,56.55
2019-03-02T23:23:20.540Z,57.06
2019-03-02T23:25:50.014Z,57.21
2019-03-02T23:28:19.562Z,57.45
2019-03-02T23:30:49.051Z,57.73
2019-03-02T23:33:18.955Z,58.17
2019-03-02T23:35:48.422Z,58.35
2019-03-02T23:38:17.908Z,58.44
2019-03-02T23:40:47.409Z,58.70
2019-03-02T23:43:16.896Z,59.04
2019-03-02T23:45:46.574Z,59.53
2019-03-02T23:48:16.068Z,59.92
2019-03-02T23:50:45.549Z,60.44
2019-03-02T23:53:15.022Z,61.19
2019-03-02T23:55:44.514Z,61.49
2019-03-02T23:58:14.384Z,61.70
